createdAt,value
2019-03-04T00:02:03.843Z,99.90
2019-03-04T00:04:33.995Z,99.90
2019-03-04T00:07:04.243Z,99.90
2019-03-04T00:09:34.425Z,99.90
2019-03-04T00:12:04.608Z,99.90
2019-03-04T00:14:35.417Z,99.90
2019-03-04T00:17:08.725Z,99.90
2019-03-04T00:19:38.959Z,99.90
2019-03-04T00:22:09.990Z,99.90
2019-03-04T00:24:51.785Z,99.90
2019-03-04T00:27:22.895Z,99.90
2019-03-04T00:29:53.033Z,99.90
2019-03-04T00:32:23.238Z,99.90
2019-03-04T00:34:53.268Z,99.90
2019-03-04T00:37:23.345Z,99.90
2019-03-04T00:39:53.437Z,99.90
2019-03-04T00:42:23.659Z,99.90
2019-03-04T00:44:53.739Z,99.90
2019-03-04T00:47:23.941Z,99.90
2019-03-04T00:49:53.926Z,99.90
2019-03-04T00:52:24.171Z,99.90
2019-03-04T00:54:55.431Z,99.90
2019-03-04T00:57:25.622Z,99.90
2019-03-04T00:59:55.683Z,99.90
2019-03-04T01:02:25.587Z,99.90
2019-03-04T01:05:14.784Z,99.90
2019-03-04T01:07:45.039Z,99.90
2019-03-04T01:10:15.626Z,99.90
2019-03-04T01:12:45.795Z,99.90
2019-03-04T01:15:17.842Z,99.90
2019-03-04T01:17:48.042Z,99.90
2019-03-04T01:20:18.733Z,99.90
2019-03-04T01:22:48.960Z,99.90
2019-03-04T01:25:19.370Z,99.90
2019-03-04T01:27:49.668Z,99.90
2019-03-04T01:30:21.811Z,99.90
2019-03-04T01:32:52.700Z,99.90
2019-03-04T01:35:22.890Z,99.90
2019-03-04T01:37:52.966Z,99.90
2019-03-04T01:40:23.214Z,99.90
2019-03-04T01:42:56.350Z,99.90
2019-03-04T01:45:26.769Z,99.90
2019-03-04T01:47:56.936Z,99.90
2019-03-04T01:50:27.938Z,99.90
2019-03-04T01:52:58.115Z,99.90
2019-03-04T01:55:28.244Z,99.90
2019-03-04T01:57:58.390Z,99.90
2019-03-04T02:00:28.647Z,99.90
2019-03-04T02:02:58.692Z,99.90
2019-03-04T02:05:28.843Z,99.90
2019-03-04T02:07:58.927Z,99.90
2019-03-04T02:10:29.151Z,99.90
2019-03-04T02:12:59.147Z,99.90
2019-03-04T02:15:29.211Z,99.90
2019-03-04T02:17:59.397Z,99.90
2019-03-04T02:20:29.614Z,99.90
2019-03-04T02:22:59.921Z,99.90
2019-03-04T02:26:08.433Z,99.90
2019-03-04T02:28:57.667Z,99.90
2019-03-04T02:31:27.794Z,99.90
2019-03-04T02:33:58.038Z,99.90
2019-03-04T02:36:28.274Z,99.90
2019-03-04T02:38:58.370Z,99.90
2019-03-04T02:41:28.517Z,99.90
2019-03-04T02:43:58.661Z,99.90
2019-03-04T02:46:28.834Z,99.90
2019-03-04T02:48:59.100Z,99.90
2019-03-04T02:51:29.203Z,99.90
2019-03-04T02:53:59.365Z,99.90
2019-03-04T02:56:29.579Z,99.90
2019-03-04T02:58:59.728Z,99.90
2019-03-04T03:01:29.931Z,99.90
2019-03-04T03:03:59.939Z,99.90
2019-03-04T03:06:30.055Z,99.90
2019-03-04T03:09:00.194Z,99.90
2019-03-04T03:11:30.285Z,99.90
2019-03-04T03:14:00.417Z,99.90
2019-03-04T03:16:30.410Z,99.90
2019-03-04T03:19:00.596Z,99.90
2019-03-04T03:21:30.748Z,99.90
2019-03-04T03:24:01.110Z,99.90
2019-03-04T03:26:31.110Z,99.90
2019-03-04T03:29:01.122Z,99.90
2019-03-04T03:31:31.168Z,99.90
2019-03-04T03:34:02.434Z,99.90
2019-03-04T03:36:32.669Z,99.90
2019-03-04T03:39:04.289Z,99.90
2019-03-04T03:41:37.116Z,99.90
2019-03-04T03:44:07.257Z,99.90
2019-03-04T03:46:37.779Z,99.90
2019-03-04T03:49:08.079Z,99.90
2019-03-04T03:51:38.304Z,99.90
2019-03-04T03:54:10.149Z,99.90
2019-03-04T03:56:40.278Z,99.90
2019-03-04T03:59:10.488Z,99.90
2019-03-04T04:01:40.581Z,99.90
2019-03-04T04:04:10.595Z,99.90
2019-03-04T04:06:40.651Z,99.90
2019-03-04T04:09:10.789Z,99.90
2019-03-04T04:11:41.005Z,99.90
2019-03-04T04:14:11.100Z,99.90
2019-03-04T04:16:41.153Z,99.90
2019-03-04T04:19:11.168Z,99.90
2019-03-04T04:21:41.273Z,99.90
2019-03-04T04:24:11.335Z,99.90
2019-03-04T04:26:41.422Z,99.90
2019-03-04T04:29:12.472Z,99.90
2019-03-04T04:31:43.517Z,99.90
2019-03-04T04:34:13.966Z,99.90
2019-03-04T04:36:44.118Z,99.90
2019-03-04T04:39:14.309Z,99.90
2019-03-04T04:41:44.305Z,99.90
2019-03-04T04:44:14.470Z,99.90
2019-03-04T04:47:05.767Z,99.90
2019-03-04T04:49:47.779Z,99.90
2019-03-04T04:52:17.982Z,99.90
2019-03-04T04:54:48.170Z,99.90
2019-03-04T04:57:18.402Z,99.90
2019-03-04T04:59:49.623Z,99.90
2019-03-04T05:02:19.886Z,99.90
2019-03-04T05:04:49.993Z,99.90
2019-03-04T05:07:20.116Z,99.90
2019-03-04T05:09:50.290Z,99.90
2019-03-04T05:12:20.540Z,99.90
2019-03-04T05:14:52.322Z,99.90
2019-03-04T05:17:22.258Z,99.90
2019-03-04T05:19:52.402Z,99.90
2019-03-04T05:22:25.423Z,99.90
2019-03-04T05:24:55.694Z,99.90
2019-03-04T05:27:25.696Z,99.90
2019-03-04T05:29:55.776Z,99.90
2019-03-04T05:32:26.035Z,99.90
2019-03-04T05:34:56.179Z,99.90
2019-03-04T05:37:26.308Z,99.90
2019-03-04T05:39:56.361Z,99.90
2019-03-04T05:42:26.521Z,99.90
2019-03-04T05:44:58.201Z,99.90
2019-03-04T05:47:28.256Z,99.90
2019-03-04T05:49:58.455Z,99.90
2019-03-04T05:52:28.638Z,99.90
2019-03-04T05:54:58.812Z,99.90
2019-03-04T05:57:28.932Z,99.90
2019-03-04T05:59:59.193Z,99.90
2019-03-04T06:02:30.541Z,99.90
2019-03-04T06:05:02.180Z,99.90
2019-03-04T06:07:37.879Z,99.90
2019-03-04T06:10:10.579Z,99.90
2019-03-04T06:12:40.749Z,99.90
2019-03-04T06:30:09.079Z,99.90
2019-03-04T06:32:42.918Z,99.90
2019-03-04T06:35:14.214Z,99.90
2019-03-04T06:37:44.318Z,99.90
2019-03-04T06:40:15.914Z,99.90
2019-03-04T06:42:46.084Z,99.90
2019-03-04T06:45:16.398Z,99.90
2019-03-04T06:47:46.611Z,99.90
2019-03-04T06:50:44.905Z,99.90
2019-03-04T06:53:17.785Z,99.90
2019-03-04T06:56:26.213Z,99.90
2019-03-04T06:59:10.724Z,99.90
2019-03-04T07:01:44.954Z,99.90
2019-03-04T07:04:27.012Z,99.90
2019-03-04T07:06:57.010Z,99.90
2019-03-04T07:09:28.646Z,99.90
2019-03-04T07:12:10.753Z,99.90
2019-03-04T07:14:42.536Z,99.90
2019-03-04T07:17:12.960Z,99.90
2019-03-04T07:19:43.115Z,99.90
2019-03-04T07:22:14.271Z,99.90
2019-03-04T07:24:44.439Z,99.90
2019-03-04T07:27:14.602Z,99.90
2019-03-04T07:29:44.868Z,99.90
2019-03-04T07:32:15.100Z,99.90
2019-03-04T07:34:45.162Z,99.90
2019-03-04T07:37:15.292Z,99.90
2019-03-04T07:39:45.331Z,99.90
2019-03-04T07:42:15.737Z,99.90
2019-03-04T07:44:45.805Z,99.90
2019-03-04T07:47:17.849Z,99.90
2019-03-04T07:49:50.264Z,99.90
2019-03-04T07:52:20.504Z,99.90
2019-03-04T07:54:50.843Z,99.90
2019-03-04T07:57:21.185Z,99.90
2019-03-04T07:59:51.343Z,99.90
2019-03-04T08:02:21.817Z,99.90
2019-03-04T08:04:52.125Z,99.90
2019-03-04T08:07:42.754Z,99.90
2019-03-04T08:10:43.207Z,99.90
2019-03-04T08:13:18.104Z,99.90
2019-03-04T08:15:51.086Z,99.90
2019-03-04T08:18:21.489Z,99.90
2019-03-04T08:20:51.660Z,99.90
2019-03-04T08:23:21.948Z,99.10
2019-03-04T08:25:52.043Z,99.80
2019-03-04T08:28:22.434Z,98.40
2019-03-04T08:30:52.765Z,98.60
2019-03-04T08:33:23.082Z,98.30
2019-03-04T08:35:53.454Z,98.30
2019-03-04T08:38:24.164Z,98.10
2019-03-04T08:40:57.034Z,98.50
2019-03-04T08:43:28.404Z,97.60
2019-03-04T08:45:58.637Z,97.10
2019-03-04T08:48:29.744Z,97.30
2019-03-04T08:51:02.165Z,97.60
2019-03-04T08:53:31.672Z,97.10
2019-03-04T08:56:01.949Z,97.20
2019-03-04T08:58:34.279Z,96.50
2019-03-04T09:01:57.685Z,95.80
2019-03-04T09:04:28.049Z,96.90
2019-03-04T09:06:58.228Z,95.70
2019-03-04T09:09:28.349Z,95.50
2019-03-04T09:11:58.667Z,95.50
2019-03-04T09:14:28.878Z,95.20
2019-03-04T09:16:59.163Z,95.40
2019-03-04T09:19:29.269Z,95.00
2019-03-04T09:21:59.748Z,95.30
2019-03-04T09:24:29.953Z,95.10
2019-03-04T09:27:00.219Z,94.50
2019-03-04T09:29:30.481Z,95.00
2019-03-04T09:32:00.528Z,94.30
2019-03-04T09:34:32.695Z,94.40
2019-03-04T09:37:02.995Z,95.00
2019-03-04T09:39:33.316Z,93.80
2019-03-04T09:42:11.536Z,94.10
2019-03-04T09:44:41.659Z,94.50
2019-03-04T09:47:11.819Z,94.20
2019-03-04T09:49:41.975Z,94.00
2019-03-04T09:52:12.342Z,93.20
2019-03-04T09:54:42.410Z,93.20
2019-03-04T09:57:13.579Z,93.50
2019-03-04T09:59:43.650Z,93.60
2019-03-04T10:02:18.411Z,93.60
2019-03-04T10:05:13.721Z,93.50
2019-03-04T10:08:14.863Z,93.10
2019-03-04T10:11:06.567Z,92.60
2019-03-04T10:13:59.642Z,93.10
2019-03-04T10:16:57.569Z,92.50
2019-03-04T10:19:57.107Z,93.20
2019-03-04T10:22:50.804Z,92.30
2019-03-04T10:25:46.600Z,92.20
2019-03-04T10:28:55.387Z,92.30
2019-03-04T10:31:42.056Z,91.20
2019-03-04T10:34:42.725Z,91.10
2019-03-04T10:37:39.663Z,91.20
2019-03-04T10:40:33.922Z,91.10
2019-03-04T10:43:28.625Z,90.40
2019-03-04T10:46:20.780Z,90.10
2019-03-04T10:48:51.242Z,86.70
2019-03-04T10:51:21.376Z,85.30
2019-03-04T10:53:51.799Z,88.10
2019-03-04T10:56:22.021Z,88.10
2019-03-04T10:58:52.524Z,89.30
2019-03-04T11:01:30.088Z,89.00
2019-03-04T11:03:54.585Z,88.70
2019-03-04T11:06:25.087Z,86.60
2019-03-04T11:08:55.515Z,82.60
2019-03-04T11:11:30.085Z,78.40
2019-03-04T11:13:58.907Z,73.40
2019-03-04T11:16:30.799Z,72.60
2019-03-04T11:19:01.019Z,70.60
2019-03-04T11:21:31.221Z,70.30
2019-03-04T11:24:01.613Z,67.50
2019-03-04T11:26:31.818Z,65.20
2019-03-04T11:29:02.162Z,64.20
2019-03-04T11:31:32.347Z,63.70
2019-03-04T11:34:02.632Z,62.80
2019-03-04T11:36:32.963Z,62.20
2019-03-04T11:39:18.333Z,63.80
2019-03-04T11:41:49.268Z,65.10
2019-03-04T11:44:19.381Z,67.00
2019-03-04T11:46:49.617Z,70.80
2019-03-04T11:49:19.749Z,75.50
2019-03-04T11:51:49.920Z,78.00
2019-03-04T11:54:23.079Z,79.50
2019-03-04T11:56:53.262Z,81.10
2019-03-04T11:59:23.349Z,81.90
2019-03-04T12:01:53.409Z,84.00
2019-03-04T12:04:23.607Z,84.00
2019-03-04T12:06:54.095Z,84.80
2019-03-04T12:09:24.460Z,83.70
2019-03-04T12:11:55.669Z,83.20
2019-03-04T12:14:26.192Z,83.50
2019-03-04T12:16:57.618Z,84.20
2019-03-04T12:19:28.816Z,84.80
2019-03-04T12:22:00.988Z,85.70
2019-03-04T12:24:31.346Z,84.80
2019-03-04T12:27:01.545Z,83.90
2019-03-04T12:29:31.800Z,84.30
2019-03-04T12:32:20.920Z,84.40
2019-03-04T12:34:51.049Z,84.60
2019-03-04T12:37:21.267Z,84.50
2019-03-04T12:39:51.388Z,83.70
2019-03-04T12:42:22.701Z,83.70
2019-03-04T12:44:52.887Z,84.00
2019-03-04T12:47:23.034Z,84.00
2019-03-04T12:49:53.238Z,82.80
2019-03-04T12:52:23.473Z,80.90
2019-03-04T12:54:53.744Z,79.30
2019-03-04T12:57:23.927Z,79.10
2019-03-04T12:59:53.979Z,78.10
2019-03-04T13:02:24.240Z,78.70
2019-03-04T13:04:54.341Z,78.40
2019-03-04T13:07:26.067Z,78.00
2019-03-04T13:09:56.609Z,77.60
2019-03-04T13:12:26.806Z,78.30
2019-03-04T13:14:56.845Z,78.40
2019-03-04T13:17:26.847Z,78.30
2019-03-04T13:19:56.825Z,78.30
2019-03-04T13:22:27.979Z,79.00
2019-03-04T13:24:58.261Z,79.50
2019-03-04T13:27:28.465Z,79.90
2019-03-04T13:29:58.612Z,80.30
2019-03-04T13:32:28.809Z,80.40
2019-03-04T13:34:58.922Z,79.60
2019-03-04T13:37:30.442Z,78.70
2019-03-04T13:40:00.824Z,78.70
2019-03-04T13:42:31.522Z,79.00
2019-03-04T13:45:01.672Z,79.40
2019-03-04T13:47:33.357Z,78.50
2019-03-04T13:50:07.037Z,78.80
2019-03-04T13:52:37.388Z,78.60
2019-03-04T13:55:07.474Z,78.60
2019-03-04T13:57:37.731Z,78.50
2019-03-04T14:00:10.972Z,78.70
2019-03-04T14:02:41.199Z,78.70
2019-03-04T14:05:11.942Z,77.30
2019-03-04T14:07:42.152Z,76.90
2019-03-04T14:10:13.639Z,77.60
2019-03-04T14:12:44.068Z,78.60
2019-03-04T14:15:17.660Z,76.00
2019-03-04T14:17:47.979Z,76.40
2019-03-04T14:20:18.207Z,75.70
2019-03-04T14:22:57.296Z,75.40
2019-03-04T14:25:20.400Z,75.90
2019-03-04T14:27:50.646Z,75.60
2019-03-04T14:30:20.827Z,75.40
2019-03-04T14:32:51.121Z,75.70
2019-03-04T14:35:21.381Z,75.50
2019-03-04T14:37:51.622Z,75.80
2019-03-04T14:40:21.804Z,75.10
2019-03-04T14:42:52.027Z,76.30
2019-03-04T14:45:22.339Z,75.60
2019-03-04T14:47:52.567Z,75.70
2019-03-04T14:50:22.961Z,75.80
2019-03-04T14:52:53.248Z,76.10
2019-03-04T14:55:23.449Z,75.40
2019-03-04T14:57:53.996Z,75.20
2019-03-04T15:00:29.491Z,76.00
2019-03-04T15:02:59.866Z,75.60
2019-03-04T15:05:29.984Z,76.30
2019-03-04T15:08:00.181Z,77.10
2019-03-04T15:10:31.577Z,77.60
2019-03-04T15:13:01.895Z,78.40
2019-03-04T15:15:32.630Z,78.10
2019-03-04T15:18:03.137Z,78.30
2019-03-04T15:20:34.601Z,77.80
2019-03-04T15:23:04.986Z,78.30
2019-03-04T15:25:35.712Z,77.30
2019-03-04T15:28:11.965Z,77.50
2019-03-04T15:30:43.312Z,76.50
2019-03-04T15:33:18.081Z,75.70
2019-03-04T15:35:46.138Z,76.40
2019-03-04T15:38:17.464Z,75.60
2019-03-04T15:40:49.298Z,75.70
2019-03-04T15:43:19.544Z,75.80
2019-03-04T15:45:52.125Z,76.20
2019-03-04T15:48:23.765Z,76.20
2019-03-04T15:50:55.773Z,76.30
2019-03-04T15:53:26.674Z,76.60
2019-03-04T15:55:56.836Z,77.10
2019-03-04T15:58:27.021Z,76.80
2019-03-04T16:00:57.467Z,77.00
2019-03-04T16:03:27.689Z,76.50
2019-03-04T16:05:57.931Z,76.30
2019-03-04T16:08:28.093Z,75.70
2019-03-04T16:10:58.356Z,76.50
2019-03-04T16:13:28.659Z,75.70
2019-03-04T16:15:58.846Z,76.00
2019-03-04T16:18:29.193Z,75.50
2019-03-04T16:20:59.452Z,74.80
2019-03-04T16:23:29.792Z,75.30
2019-03-04T16:26:05.664Z,75.00
2019-03-04T16:28:36.154Z,75.10
2019-03-04T16:31:07.259Z,75.40
2019-03-04T16:33:40.050Z,74.60
2019-03-04T16:36:21.580Z,74.80
2019-03-04T16:39:08.331Z,75.30
2019-03-04T16:41:42.172Z,74.60
2019-03-04T16:44:14.124Z,75.00
2019-03-04T16:46:44.575Z,74.50
2019-03-04T16:49:15.953Z,74.60
2019-03-04T16:51:46.202Z,74.30
2019-03-04T16:54:16.301Z,74.60
2019-03-04T16:56:46.547Z,74.20
2019-03-04T16:59:16.860Z,74.50
2019-03-04T17:02:02.205Z,74.40
2019-03-04T17:04:40.293Z,73.60
2019-03-04T17:07:26.435Z,74.10
2019-03-04T17:10:00.355Z,74.20
2019-03-04T17:12:33.458Z,74.20
2019-03-04T17:15:04.173Z,74.00
2019-03-04T17:17:40.205Z,73.70
2019-03-04T17:20:21.539Z,73.60
2019-03-04T17:23:01.446Z,73.50
2019-03-04T17:25:31.907Z,73.80
2019-03-04T17:28:02.451Z,73.60
2019-03-04T17:30:46.523Z,73.50
2019-03-04T17:33:31.754Z,73.60
2019-03-04T17:36:11.800Z,73.90
2019-03-04T17:39:06.005Z,73.80
2019-03-04T17:41:48.746Z,73.50
2019-03-04T17:44:30.061Z,73.60
2019-03-04T17:47:13.238Z,73.20
2019-03-04T17:50:07.894Z,72.10
2019-03-04T17:53:00.759Z,71.90
2019-03-04T17:55:36.405Z,71.50
2019-03-04T17:58:28.354Z,70.90
2019-03-04T18:01:11.465Z,70.90
2019-03-04T18:03:46.880Z,70.70
2019-03-04T18:06:20.361Z,70.20
2019-03-04T18:12:21.671Z,70.20
2019-03-04T18:15:01.221Z,69.60
2019-03-04T18:17:50.876Z,69.40
2019-03-04T18:20:21.159Z,69.40
2019-03-04T18:22:51.945Z,69.20
2019-03-04T18:25:49.438Z,69.20
2019-03-04T18:28:57.068Z,69.20
2019-03-04T18:31:45.140Z,69.00
2019-03-04T18:34:43.745Z,69.00
2019-03-04T18:37:43.169Z,69.00
2019-03-04T18:40:56.974Z,69.20
2019-03-04T18:44:05.963Z,69.00
2019-03-04T18:47:16.515Z,68.90
2019-03-04T18:49:58.530Z,69.30
2019-03-04T18:52:31.121Z,69.00
2019-03-04T18:55:04.979Z,68.70
2019-03-04T18:57:45.462Z,68.10
2019-03-04T19:00:28.266Z,67.60
2019-03-04T19:03:08.187Z,67.00
2019-03-04T19:05:38.553Z,67.20
2019-03-04T19:08:08.963Z,66.10
2019-03-04T19:10:46.349Z,65.90
2019-03-04T19:13:16.684Z,65.30
2019-03-04T19:16:02.546Z,66.00
2019-03-04T19:18:39.668Z,65.30
2019-03-04T19:21:09.963Z,64.10
2019-03-04T19:23:40.861Z,64.80
2019-03-04T19:26:37.831Z,64.80
2019-03-04T19:29:08.203Z,64.90
2019-03-04T19:31:38.617Z,64.40
2019-03-04T19:34:08.949Z,64.60
2019-03-04T19:36:39.324Z,64.30
2019-03-04T19:39:10.122Z,64.10
2019-03-04T19:41:45.734Z,64.10
2019-03-04T19:44:15.956Z,64.20
2019-03-04T19:46:46.265Z,64.30
2019-03-04T19:49:17.146Z,64.00
2019-03-04T19:51:47.523Z,64.00
2019-03-04T19:54:18.016Z,62.80
2019-03-04T19:56:50.704Z,62.20
2019-03-04T19:59:21.426Z,62.10
2019-03-04T20:01:52.176Z,62.20
2019-03-04T20:04:22.548Z,62.00
2019-03-04T20:06:53.152Z,61.40
2019-03-04T20:09:42.632Z,61.60
2019-03-04T20:12:13.006Z,61.20
2019-03-04T20:14:44.856Z,61.40
2019-03-04T20:17:17.452Z,60.30
2019-03-04T20:19:49.656Z,60.30
2019-03-04T20:22:21.930Z,60.20
2019-03-04T20:24:51.909Z,60.50
2019-03-04T20:27:22.233Z,59.90
2019-03-04T20:29:52.721Z,60.10
2019-03-04T20:32:23.062Z,60.10
2019-03-04T20:34:53.337Z,60.00
2019-03-04T20:37:25.366Z,60.00
2019-03-04T20:39:55.636Z,59.90
2019-03-04T20:42:26.073Z,59.90
2019-03-04T20:44:58.754Z,59.40
2019-03-04T20:47:28.898Z,59.80
2019-03-04T20:50:01.669Z,59.60
2019-03-04T20:52:32.565Z,60.10
2019-03-04T20:55:02.776Z,60.00
2019-03-04T20:57:34.466Z,59.90
2019-03-04T21:00:06.774Z,59.90
2019-03-04T21:02:37.719Z,59.90
2019-03-04T21:05:09.893Z,59.70
2019-03-04T21:07:40.198Z,59.50
2019-03-04T21:10:10.928Z,59.80
2019-03-04T21:12:41.805Z,59.80
2019-03-04T21:15:12.624Z,59.80
2019-03-04T21:17:42.908Z,60.00
2019-03-04T21:20:13.309Z,60.00
2019-03-04T21:22:43.685Z,60.00
2019-03-04T21:25:34.469Z,60.10
2019-03-04T21:28:08.059Z,59.80
2019-03-04T21:31:07.357Z,60.00
2019-03-04T21:34:11.629Z,60.10
2019-03-04T21:36:59.036Z,60.00
2019-03-04T21:39:34.061Z,59.30
2019-03-04T21:42:09.777Z,59.30
2019-03-04T21:44:49.116Z,59.40
2019-03-04T21:47:32.363Z,60.00
2019-03-04T21:50:02.556Z,59.40
2019-03-04T21:52:51.227Z,59.20
2019-03-04T21:55:25.294Z,59.10
2019-03-04T21:57:57.244Z,59.30
2019-03-04T22:00:36.128Z,59.40
2019-03-04T22:03:22.571Z,59.40
2019-03-04T22:05:52.868Z,60.00
2019-03-04T22:08:24.834Z,59.10
2019-03-04T22:10:55.292Z,59.00
2019-03-04T22:13:25.851Z,58.90
2019-03-04T22:15:56.213Z,59.10
2019-03-04T22:18:29.560Z,59.20
2019-03-04T22:21:00.212Z,59.30
2019-03-04T22:23:31.625Z,59.10
2019-03-04T22:26:03.213Z,59.60
2019-03-04T22:28:33.476Z,59.70
2019-03-04T22:31:03.790Z,60.00
2019-03-04T22:33:34.126Z,59.60
2019-03-04T22:36:04.402Z,60.00
2019-03-04T22:38:34.709Z,60.70
2019-03-04T22:41:04.944Z,60.60
2019-03-04T22:43:35.210Z,60.70
2019-03-04T22:46:05.378Z,60.80
2019-03-04T22:48:35.537Z,61.20
2019-03-04T22:51:05.939Z,61.00
2019-03-04T22:53:36.084Z,61.70
2019-03-04T22:56:07.905Z,62.00
2019-03-04T22:58:38.054Z,62.40
2019-03-04T23:01:38.936Z,63.00
2019-03-04T23:04:37.220Z,63.60
2019-03-04T23:07:15.490Z,64.40
2019-03-04T23:10:22.086Z,65.20
2019-03-04T23:12:56.980Z,66.00
2019-03-04T23:15:27.096Z,67.00
2019-03-04T23:17:57.304Z,67.60
2019-03-04T23:20:27.573Z,68.40
2019-03-04T23:22:57.976Z,69.30
2019-03-04T23:25:30.463Z,70.30
2019-03-04T23:28:00.664Z,70.80
2019-03-04T23:30:30.845Z,72.20
2019-03-04T23:33:01.059Z,71.90
2019-03-04T23:35:31.215Z,72.40
2019-03-04T23:38:02.841Z,73.10
2019-03-04T23:40:33.836Z,73.60
2019-03-04T23:43:04.555Z,74.60
2019-03-04T23:45:34.763Z,74.60
2019-03-04T23:48:05.255Z,72.10
2019-03-04T23:50:37.774Z,71.30
2019-03-04T23:53:08.378Z,70.90
2019-03-04T23:55:38.584Z,71.90
2019-03-04T23:58:08.736Z,72.50
